createdAt,value
2017-11-07T00:00:57.114Z,77.10
2017-11-07T00:03:25.252Z,76.90
2017-11-07T00:05:53.436Z,77.00
2017-11-07T00:08:21.573Z,77.40
2017-11-07T00:10:50.613Z,77.40
2017-11-07T00:13:18.757Z,77.40
2017-11-07T00:15:46.890Z,77.40
2017-11-07T00:18:15.041Z,77.40
2017-11-07T00:20:43.180Z,77.20
2017-11-07T00:23:11.356Z,76.90
2017-11-07T00:25:39.485Z,77.20
2017-11-07T00:28:07.626Z,77.50
2017-11-07T00:30:35.914Z,77.30
2017-11-07T00:33:04.050Z,77.50
2017-11-07T00:35:32.171Z,77.70
2017-11-07T00:38:00.358Z,77.60
2017-11-07T00:40:28.490Z,77.60
2017-11-07T00:42:56.661Z,77.60
2017-11-07T00:45:24.796Z,77.70
2017-11-07T00:47:52.940Z,77.90
2017-11-07T00:50:21.229Z,78.00
2017-11-07T00:52:49.352Z,78.00
2017-11-07T00:55:17.485Z,77.80
2017-11-07T00:57:46.426Z,77.90
2017-11-07T01:00:14.565Z,77.90
2017-11-07T01:02:43.484Z,78.20
2017-11-07T01:05:11.662Z,78.20
2017-11-07T01:07:39.810Z,77.80
2017-11-07T01:10:07.949Z,78.40
2017-11-07T01:12:37.017Z,78.50
2017-11-07T01:15:05.142Z,78.50
2017-11-07T01:17:33.284Z,78.60
2017-11-07T01:20:01.460Z,78.60
2017-11-07T01:22:29.589Z,78.10
2017-11-07T01:24:57.767Z,77.50
2017-11-07T01:27:25.893Z,77.90
2017-11-07T01:29:54.931Z,77.70
2017-11-07T01:32:23.069Z,77.70
2017-11-07T01:34:51.197Z,77.90
2017-11-07T01:37:19.360Z,77.60
2017-11-07T01:39:47.484Z,77.60
2017-11-07T01:42:15.661Z,77.90
2017-11-07T01:44:43.795Z,78.10
2017-11-07T01:47:12.067Z,77.90
2017-11-07T01:49:40.209Z,77.90
2017-11-07T01:52:08.337Z,77.60
2017-11-07T01:54:37.289Z,77.90
2017-11-07T01:57:05.421Z,77.40
2017-11-07T01:59:33.569Z,77.70
2017-11-07T02:02:01.861Z,78.20
2017-11-07T02:04:30.761Z,78.30
2017-11-07T02:06:58.948Z,78.30
2017-11-07T02:09:27.085Z,77.80
2017-11-07T02:11:56.013Z,78.40
2017-11-07T02:14:24.153Z,78.90
2017-11-07T02:16:53.217Z,79.30
2017-11-07T02:19:21.380Z,79.20
2017-11-07T02:21:49.520Z,79.40
2017-11-07T02:24:17.677Z,79.80
2017-11-07T02:26:46.576Z,79.40
2017-11-07T02:29:15.521Z,79.30
2017-11-07T02:31:43.671Z,79.30
2017-11-07T02:34:11.797Z,79.60
2017-11-07T02:36:40.818Z,79.50
2017-11-07T02:39:08.950Z,79.50
2017-11-07T02:41:37.158Z,78.60
2017-11-07T02:44:05.282Z,78.70
2017-11-07T02:46:33.498Z,78.50
2017-11-07T02:49:02.532Z,78.80
2017-11-07T02:51:30.701Z,78.70
2017-11-07T02:53:58.840Z,78.80
2017-11-07T02:56:26.981Z,79.30
2017-11-07T02:58:55.182Z,79.20
2017-11-07T03:01:24.070Z,79.30
2017-11-07T03:03:53.006Z,79.10
2017-11-07T03:06:21.160Z,79.10
2017-11-07T03:08:49.297Z,79.10
2017-11-07T03:11:17.424Z,79.90
2017-11-07T03:13:45.560Z,80.20
2017-11-07T03:16:14.524Z,80.40
2017-11-07T03:18:42.661Z,80.30
2017-11-07T03:21:10.784Z,80.40
2017-11-07T03:23:39.724Z,80.20
2017-11-07T03:26:07.852Z,80.20
2017-11-07T03:28:36.781Z,80.30
2017-11-07T03:31:04.913Z,80.20
2017-11-07T03:33:33.947Z,79.70
2017-11-07T03:36:02.072Z,79.70
2017-11-07T03:38:30.243Z,79.70
2017-11-07T03:40:58.417Z,79.70
2017-11-07T03:43:26.563Z,79.80
2017-11-07T03:45:54.746Z,80.10
2017-11-07T03:48:22.877Z,79.70
2017-11-07T03:50:51.140Z,79.80
2017-11-07T03:53:19.276Z,80.40
2017-11-07T03:55:47.415Z,79.70
2017-11-07T03:58:15.572Z,79.90
2017-11-07T04:00:43.708Z,79.80
2017-11-07T04:03:11.876Z,80.90
2017-11-07T04:05:40.039Z,80.50
2017-11-07T04:08:08.179Z,80.70
2017-11-07T04:10:36.444Z,81.10
2017-11-07T04:13:04.576Z,81.20
2017-11-07T04:15:32.744Z,81.10
2017-11-07T04:18:00.868Z,81.20
2017-11-07T04:20:29.011Z,81.00
2017-11-07T04:22:57.938Z,81.70
2017-11-07T04:25:26.209Z,81.70
2017-11-07T04:27:54.350Z,81.80
2017-11-07T04:30:23.240Z,82.70
2017-11-07T04:32:52.154Z,82.50
2017-11-07T04:35:20.282Z,82.50
2017-11-07T04:37:48.447Z,82.10
2017-11-07T04:40:16.596Z,82.30
2017-11-07T04:42:44.884Z,82.30
2017-11-07T04:45:13.021Z,82.30
2017-11-07T04:47:41.160Z,83.50
2017-11-07T04:50:09.317Z,83.70
2017-11-07T04:52:37.447Z,83.90
2017-11-07T04:55:05.762Z,84.00
2017-11-07T04:57:33.899Z,83.90
2017-11-07T05:00:02.044Z,84.00
2017-11-07T05:02:30.988Z,84.20
2017-11-07T05:04:59.130Z,84.10
2017-11-07T05:07:27.301Z,84.00
2017-11-07T05:09:55.433Z,84.30
2017-11-07T05:12:23.582Z,84.80
2017-11-07T05:14:51.855Z,84.10
2017-11-07T05:17:19.996Z,84.20
2017-11-07T05:19:48.266Z,84.20
2017-11-07T05:22:16.406Z,84.30
2017-11-07T05:24:44.545Z,84.20
2017-11-07T05:27:12.704Z,84.00
2017-11-07T05:29:40.859Z,83.90
2017-11-07T05:32:09.033Z,83.70
2017-11-07T05:34:37.174Z,83.30
2017-11-07T05:37:05.305Z,83.30
2017-11-07T05:39:34.252Z,83.30
2017-11-07T05:42:03.153Z,83.20
2017-11-07T05:44:31.332Z,83.20
2017-11-07T05:47:00.257Z,83.80
2017-11-07T05:49:28.395Z,83.70
2017-11-07T05:51:56.544Z,83.60
2017-11-07T05:54:24.725Z,83.70
2017-11-07T05:56:53.681Z,83.70
2017-11-07T05:59:21.858Z,83.50
2017-11-07T06:01:50.758Z,83.10
2017-11-07T06:04:18.931Z,83.10
2017-11-07T06:06:47.077Z,83.10
2017-11-07T06:09:15.373Z,82.70
2017-11-07T06:11:43.512Z,83.20
2017-11-07T06:14:11.647Z,84.30
2017-11-07T06:16:40.628Z,83.50
2017-11-07T06:19:08.778Z,83.50
2017-11-07T06:21:36.917Z,83.20
2017-11-07T06:24:05.080Z,82.90
2017-11-07T06:26:33.230Z,83.40
2017-11-07T06:29:01.406Z,83.10
2017-11-07T06:31:29.526Z,82.80
2017-11-07T06:33:57.794Z,82.50
2017-11-07T06:36:25.924Z,82.80
2017-11-07T06:38:54.093Z,83.40
2017-11-07T06:41:22.227Z,83.50
2017-11-07T06:43:50.377Z,83.30
2017-11-07T06:46:18.557Z,83.30
2017-11-07T06:48:46.685Z,83.50
2017-11-07T06:51:14.832Z,83.50
2017-11-07T06:53:43.105Z,83.50
2017-11-07T06:56:11.237Z,83.90
2017-11-07T06:58:39.425Z,84.10
2017-11-07T07:01:07.556Z,83.60
2017-11-07T07:03:35.730Z,83.90
2017-11-07T07:06:03.871Z,84.30
2017-11-07T07:08:32.006Z,84.10
2017-11-07T07:11:00.265Z,84.10
2017-11-07T07:13:29.165Z,84.10
2017-11-07T07:15:57.329Z,84.00
2017-11-07T07:18:26.228Z,84.10
2017-11-07T07:20:54.406Z,84.10
2017-11-07T07:23:22.573Z,84.00
2017-11-07T07:25:51.480Z,83.90
2017-11-07T07:28:19.745Z,83.90
2017-11-07T07:30:48.632Z,83.50
2017-11-07T07:33:16.796Z,83.40
2017-11-07T07:35:45.745Z,84.00
2017-11-07T07:38:13.880Z,84.00
2017-11-07T07:40:42.787Z,83.90
2017-11-07T07:43:11.065Z,83.90
2017-11-07T07:45:39.196Z,84.60
2017-11-07T07:48:07.489Z,83.90
2017-11-07T07:50:35.636Z,84.00
2017-11-07T07:53:03.769Z,84.20
2017-11-07T07:55:31.928Z,84.50
2017-11-07T07:58:00.072Z,84.30
2017-11-07T08:00:29.005Z,84.40
2017-11-07T08:02:57.149Z,84.40
2017-11-07T08:05:25.420Z,84.20
2017-11-07T08:07:53.577Z,84.20
2017-11-07T08:10:22.478Z,85.10
2017-11-07T08:12:51.445Z,85.00
2017-11-07T08:15:19.577Z,84.90
2017-11-07T08:17:47.713Z,84.90
2017-11-07T08:20:16.635Z,85.60
2017-11-07T08:22:44.768Z,85.50
2017-11-07T08:25:13.053Z,85.60
2017-11-07T08:27:42.000Z,85.80
2017-11-07T08:30:10.169Z,85.70
2017-11-07T08:32:38.329Z,85.80
2017-11-07T08:35:06.474Z,85.70
2017-11-07T08:37:35.425Z,85.60
2017-11-07T08:40:03.547Z,85.60
2017-11-07T08:42:31.694Z,85.60
2017-11-07T08:44:59.867Z,85.60
2017-11-07T08:47:28.764Z,85.80
2017-11-07T08:49:57.706Z,85.90
2017-11-07T08:52:25.833Z,85.80
2017-11-07T08:54:54.773Z,85.60
2017-11-07T08:57:23.668Z,85.60
2017-11-07T08:59:51.955Z,85.60
2017-11-07T09:02:20.105Z,85.00
2017-11-07T09:04:48.259Z,84.90
2017-11-07T09:07:16.421Z,84.40
2017-11-07T09:09:44.592Z,84.80
2017-11-07T09:12:13.511Z,84.50
2017-11-07T09:14:41.670Z,84.50
2017-11-07T09:17:09.936Z,84.50
2017-11-07T09:19:38.117Z,84.90
2017-11-07T09:22:06.259Z,84.30
2017-11-07T09:24:34.384Z,84.30
2017-11-07T09:27:02.580Z,83.70
2017-11-07T09:29:30.716Z,84.00
2017-11-07T09:31:58.897Z,83.50
2017-11-07T09:34:27.035Z,84.00
2017-11-07T09:36:55.195Z,84.10
2017-11-07T09:39:23.360Z,83.20
2017-11-07T09:41:51.494Z,82.70
2017-11-07T09:44:19.692Z,82.80
2017-11-07T09:46:47.832Z,82.60
2017-11-07T09:49:15.971Z,82.60
2017-11-07T09:51:44.126Z,82.60
2017-11-07T09:54:12.261Z,81.80
2017-11-07T09:56:40.421Z,82.10
2017-11-07T09:59:08.556Z,82.50
2017-11-07T10:01:36.824Z,83.00
2017-11-07T10:04:04.969Z,82.60
2017-11-07T10:06:33.113Z,82.70
2017-11-07T10:09:01.287Z,82.80
2017-11-07T10:11:29.437Z,82.30
2017-11-07T10:13:57.616Z,82.10
2017-11-07T10:16:26.517Z,82.80
2017-11-07T10:18:54.758Z,82.70
2017-11-07T10:21:22.919Z,82.60
2017-11-07T10:23:51.060Z,82.20
2017-11-07T10:26:19.209Z,82.40
2017-11-07T10:28:48.261Z,83.00
2017-11-07T10:31:16.396Z,82.90
2017-11-07T10:33:44.537Z,82.80
2017-11-07T10:36:13.460Z,83.00
2017-11-07T10:38:41.609Z,83.00
2017-11-07T10:41:10.659Z,83.50
2017-11-07T10:43:38.793Z,83.50
2017-11-07T10:46:06.934Z,83.80
2017-11-07T10:48:35.099Z,83.90
2017-11-07T10:51:03.245Z,83.20
2017-11-07T10:53:31.513Z,83.20
2017-11-07T10:55:59.650Z,83.30
2017-11-07T10:58:28.552Z,82.80
2017-11-07T11:00:56.714Z,82.80
2017-11-07T11:03:24.849Z,83.10
2017-11-07T11:05:53.041Z,82.80
2017-11-07T11:08:21.173Z,82.40
2017-11-07T11:10:49.450Z,82.70
2017-11-07T11:13:17.582Z,82.90
2017-11-07T11:15:45.720Z,82.40
2017-11-07T11:18:13.885Z,81.90
2017-11-07T11:20:42.025Z,81.90
2017-11-07T11:23:10.209Z,81.30
2017-11-07T11:25:38.349Z,82.00
2017-11-07T11:28:06.482Z,82.20
2017-11-07T11:30:34.754Z,81.90
2017-11-07T11:33:03.049Z,82.20
2017-11-07T11:35:31.173Z,81.30
2017-11-07T11:37:59.318Z,81.00
2017-11-07T11:40:28.254Z,81.60
2017-11-07T11:42:56.394Z,81.60
2017-11-07T11:45:24.530Z,82.30
2017-11-07T11:47:52.711Z,82.20
2017-11-07T11:50:20.824Z,82.10
2017-11-07T11:52:49.110Z,81.70
2017-11-07T11:55:17.238Z,81.60
2017-11-07T11:57:46.173Z,81.10
2017-11-07T12:00:14.320Z,81.10
2017-11-07T12:02:42.451Z,81.40
2017-11-07T12:05:10.625Z,81.70
2017-11-07T12:07:38.761Z,81.20
2017-11-07T12:10:07.033Z,81.50
2017-11-07T12:12:35.167Z,80.70
2017-11-07T12:15:03.349Z,80.40
2017-11-07T12:17:31.477Z,80.40
2017-11-07T12:19:59.609Z,81.00
2017-11-07T12:22:27.764Z,80.90
2017-11-07T12:24:56.670Z,80.50
2017-11-07T12:27:24.977Z,80.50
2017-11-07T12:29:53.119Z,80.40
2017-11-07T12:32:21.292Z,80.70
2017-11-07T12:34:50.229Z,81.30
2017-11-07T12:37:18.367Z,81.20
2017-11-07T12:39:46.531Z,81.30
2017-11-07T12:42:14.664Z,81.30
2017-11-07T12:44:42.874Z,81.90
2017-11-07T12:47:11.790Z,81.90
2017-11-07T12:49:39.923Z,81.90
2017-11-07T12:52:08.854Z,81.60
2017-11-07T12:54:36.992Z,81.60
2017-11-07T12:57:05.917Z,81.90
2017-11-07T12:59:34.058Z,81.80
2017-11-07T13:02:03.093Z,82.00
2017-11-07T13:04:31.242Z,82.00
2017-11-07T13:06:59.409Z,82.30
2017-11-07T13:09:28.317Z,82.20
2017-11-07T13:11:56.449Z,82.20
2017-11-07T13:14:24.669Z,81.90
2017-11-07T13:16:52.841Z,81.30
2017-11-07T13:19:21.117Z,81.90
2017-11-07T13:21:49.248Z,81.70
2017-11-07T13:24:17.395Z,81.60
2017-11-07T13:26:45.556Z,81.60
2017-11-07T13:29:13.742Z,81.20
2017-11-07T13:31:48.939Z,81.60
2017-11-07T13:34:18.005Z,81.10
2017-11-07T13:36:46.903Z,81.80
2017-11-07T13:39:15.797Z,81.50
2017-11-07T13:41:44.732Z,81.40
2017-11-07T13:44:12.863Z,81.30
2017-11-07T13:46:41.803Z,82.00
2017-11-07T13:49:09.944Z,82.00
2017-11-07T13:51:38.232Z,81.50
2017-11-07T13:54:06.363Z,81.90
2017-11-07T13:56:34.588Z,82.00
2017-11-07T13:59:02.701Z,82.20
2017-11-07T14:01:30.850Z,81.90
2017-11-07T14:03:59.010Z,82.00
2017-11-07T14:06:27.165Z,81.90
2017-11-07T14:08:55.444Z,81.90
2017-11-07T14:11:23.606Z,82.20
2017-11-07T14:13:51.744Z,81.80
2017-11-07T14:16:19.917Z,81.70
2017-11-07T14:18:48.048Z,82.00
2017-11-07T14:21:16.264Z,82.10
2017-11-07T14:23:44.422Z,82.00
2017-11-07T14:26:12.553Z,82.10
2017-11-07T14:28:40.837Z,81.80
2017-11-07T14:31:08.987Z,82.00
2017-11-07T14:33:37.905Z,81.10
2017-11-07T14:36:06.048Z,81.70
2017-11-07T14:38:34.969Z,82.10
2017-11-07T14:41:03.115Z,82.00
2017-11-07T14:43:32.185Z,82.30
2017-11-07T14:46:13.873Z,82.20
2017-11-07T14:48:42.043Z,82.50
2017-11-07T14:51:10.204Z,82.40
2017-11-07T14:53:38.337Z,82.30
2017-11-07T14:56:06.518Z,82.40
2017-11-07T14:58:34.663Z,82.20
2017-11-07T15:01:03.565Z,81.80
2017-11-07T15:03:31.841Z,81.80
2017-11-07T15:06:00.004Z,81.60
2017-11-07T15:08:28.934Z,82.20
2017-11-07T15:10:57.080Z,82.00
2017-11-07T15:13:25.261Z,81.40
2017-11-07T15:15:53.397Z,81.60
2017-11-07T15:18:21.700Z,81.40
2017-11-07T15:20:50.628Z,81.90
2017-11-07T15:23:18.791Z,81.90
2017-11-07T15:25:46.948Z,81.80
2017-11-07T15:28:15.093Z,81.90
2017-11-07T15:30:44.053Z,82.30
2017-11-07T15:33:12.183Z,82.10
2017-11-07T15:35:40.462Z,82.50
2017-11-07T15:38:08.597Z,82.60
2017-11-07T15:40:36.874Z,82.70
2017-11-07T15:43:05.046Z,83.00
2017-11-07T15:45:33.192Z,83.10
2017-11-07T15:48:01.437Z,83.50
2017-11-07T15:50:33.129Z,83.60
2017-11-07T15:53:01.300Z,83.40
2017-11-07T15:55:29.435Z,83.30
2017-11-07T15:57:57.600Z,83.70
2017-11-07T16:00:25.739Z,83.90
2017-11-07T16:02:53.874Z,83.90
2017-11-07T16:05:22.068Z,84.00
2017-11-07T16:07:50.240Z,84.30
2017-11-07T16:10:18.441Z,84.60
2017-11-07T16:12:46.620Z,84.40
2017-11-07T16:15:14.785Z,85.20
2017-11-07T16:17:42.956Z,85.00
2017-11-07T16:20:11.095Z,85.10
2017-11-07T16:22:39.271Z,85.30
2017-11-07T16:25:07.413Z,85.50
2017-11-07T16:27:35.576Z,85.50
2017-11-07T16:30:04.510Z,85.80
2017-11-07T16:32:32.657Z,85.80
2017-11-07T16:35:00.871Z,85.90
2017-11-07T16:37:29.018Z,86.20
2017-11-07T16:39:57.170Z,86.30
2017-11-07T16:42:26.102Z,86.90
2017-11-07T16:44:54.254Z,86.90
2017-11-07T16:47:22.448Z,87.20
2017-11-07T16:49:51.370Z,87.70
2017-11-07T16:52:19.552Z,87.70
2017-11-07T16:54:47.711Z,87.70
2017-11-07T16:57:15.885Z,87.50
2017-11-07T16:59:45.907Z,87.50
2017-11-07T17:02:14.041Z,87.50
2017-11-07T17:04:42.245Z,87.30
2017-11-07T17:07:10.407Z,87.10
2017-11-07T17:09:38.549Z,87.40
2017-11-07T17:12:06.722Z,87.10
2017-11-07T17:14:34.861Z,87.20
2017-11-07T17:17:03.933Z,87.00
2017-11-07T17:19:32.091Z,87.00
2017-11-07T17:22:00.242Z,87.60
2017-11-07T17:24:28.414Z,87.90
2017-11-07T17:26:56.544Z,87.70
2017-11-07T17:29:25.494Z,87.30
2017-11-07T17:31:53.634Z,87.20
2017-11-07T17:34:21.796Z,87.20
2017-11-07T17:36:50.074Z,87.10
2017-11-07T17:39:18.971Z,86.50
2017-11-07T17:41:47.151Z,86.50
2017-11-07T17:44:15.307Z,86.10
2017-11-07T17:46:44.269Z,86.20
2017-11-07T17:49:12.413Z,86.90
2017-11-07T17:51:40.551Z,86.20
2017-11-07T17:54:09.614Z,86.40
2017-11-07T17:56:37.760Z,86.40
2017-11-07T17:59:05.956Z,86.90
2017-11-07T18:01:34.115Z,87.10
2017-11-07T18:04:02.303Z,87.40
2017-11-07T18:06:30.489Z,87.50
2017-11-07T18:08:58.681Z,87.90
2017-11-07T18:11:26.832Z,88.20
2017-11-07T18:13:54.965Z,88.30
2017-11-07T18:16:23.171Z,88.20
2017-11-07T18:18:51.322Z,88.20
2017-11-07T18:21:19.507Z,88.00
2017-11-07T18:23:47.645Z,87.70
2017-11-07T18:26:15.779Z,87.80
2017-11-07T18:28:43.947Z,88.00
2017-11-07T18:31:12.090Z,87.50
2017-11-07T18:33:40.292Z,88.00
2017-11-07T18:36:08.449Z,88.40
2017-11-07T18:38:36.593Z,89.00
2017-11-07T18:41:04.859Z,89.30
2017-11-07T18:43:33.803Z,89.50
2017-11-07T18:46:01.947Z,89.40
2017-11-07T18:48:30.233Z,89.50
2017-11-07T18:50:58.390Z,89.40
2017-11-07T18:53:26.548Z,89.50
2017-11-07T18:55:54.743Z,89.20
2017-11-07T18:58:22.905Z,89.20
2017-11-07T19:00:51.037Z,89.40
2017-11-07T19:03:19.941Z,89.20
2017-11-07T19:05:48.233Z,89.10
2017-11-07T19:08:16.447Z,89.00
2017-11-07T19:10:44.600Z,89.10
2017-11-07T19:13:12.760Z,89.10
2017-11-07T19:15:40.918Z,89.30
2017-11-07T19:18:09.856Z,90.00
2017-11-07T19:20:38.011Z,90.00
2017-11-07T19:23:06.141Z,90.00
2017-11-07T19:25:35.189Z,90.30
2017-11-07T19:28:03.334Z,90.20
2017-11-07T19:30:31.524Z,90.30
2017-11-07T19:32:59.682Z,90.20
2017-11-07T19:35:27.854Z,90.10
2017-11-07T19:37:56.016Z,90.10
2017-11-07T19:40:24.965Z,90.00
2017-11-07T19:42:53.119Z,90.00
2017-11-07T19:45:21.309Z,90.10
2017-11-07T19:47:49.453Z,90.10
2017-11-07T19:50:17.613Z,90.10
2017-11-07T19:52:45.786Z,90.10
2017-11-07T19:55:13.928Z,90.20
2017-11-07T19:57:42.215Z,90.30
2017-11-07T20:00:10.354Z,90.40
2017-11-07T20:02:38.535Z,90.80
2017-11-07T20:05:06.684Z,90.50
2017-11-07T20:07:34.830Z,90.60
2017-11-07T20:10:03.034Z,90.50
2017-11-07T20:12:31.207Z,90.60
2017-11-07T20:14:59.424Z,90.60
2017-11-07T20:17:27.551Z,90.60
2017-11-07T20:19:55.739Z,90.30
2017-11-07T20:22:23.934Z,90.30
2017-11-07T20:24:52.143Z,90.30
2017-11-07T20:27:20.335Z,90.30
2017-11-07T20:29:48.490Z,90.20
2017-11-07T20:32:17.548Z,90.10
2017-11-07T20:34:45.689Z,90.10
2017-11-07T20:37:13.875Z,90.00
2017-11-07T20:39:42.009Z,90.00
2017-11-07T20:42:10.151Z,90.10
2017-11-07T20:44:38.338Z,90.10
2017-11-07T20:47:07.276Z,90.20
2017-11-07T20:49:35.549Z,90.20
2017-11-07T20:52:03.732Z,90.20
2017-11-07T20:54:31.882Z,90.00
2017-11-07T20:57:00.034Z,89.90
2017-11-07T20:59:28.222Z,89.80
2017-11-07T21:01:56.354Z,89.80
2017-11-07T21:04:24.659Z,90.00
2017-11-07T21:06:53.613Z,90.00
2017-11-07T21:09:21.765Z,90.00
2017-11-07T21:11:49.933Z,90.00
2017-11-07T21:14:18.078Z,90.00
2017-11-07T21:16:46.245Z,89.90
2017-11-07T21:19:14.401Z,90.00
2017-11-07T21:21:43.461Z,90.10
2017-11-07T21:24:11.609Z,90.10
2017-11-07T21:26:39.776Z,90.30
2017-11-07T21:29:07.929Z,90.30
2017-11-07T21:31:36.069Z,90.10
2017-11-07T21:34:04.394Z,90.10
2017-11-07T21:36:32.559Z,90.10
2017-11-07T21:39:00.769Z,90.20
2017-11-07T21:41:28.921Z,90.00
2017-11-07T21:43:57.070Z,90.00
2017-11-07T21:46:26.021Z,89.80
2017-11-07T21:48:54.205Z,89.70
2017-11-07T21:51:22.382Z,89.90
2017-11-07T21:53:50.521Z,90.00
2017-11-07T21:56:18.695Z,90.00
2017-11-07T21:58:46.977Z,89.70
2017-11-07T22:01:15.170Z,89.20
2017-11-07T22:03:43.298Z,89.40
2017-11-07T22:06:11.472Z,89.70
2017-11-07T22:08:39.653Z,90.00
2017-11-07T22:11:07.807Z,90.00
2017-11-07T22:13:36.122Z,89.60
2017-11-07T22:16:04.265Z,89.30
2017-11-07T22:18:32.407Z,89.80
2017-11-07T22:21:00.573Z,89.60
2017-11-07T22:23:28.707Z,89.90
2017-11-07T22:25:56.885Z,90.00
2017-11-07T22:28:25.033Z,90.10
2017-11-07T22:30:53.326Z,90.20
2017-11-07T22:33:21.481Z,90.10
2017-11-07T22:35:49.620Z,90.40
2017-11-07T22:38:17.797Z,89.60
2017-11-07T22:40:45.945Z,89.80
2017-11-07T22:43:14.137Z,89.50
2017-11-07T22:45:42.282Z,89.40
2017-11-07T22:48:10.414Z,89.90
2017-11-07T22:50:38.685Z,89.50
2017-11-07T22:53:06.876Z,89.50
2017-11-07T22:55:35.048Z,89.30
2017-11-07T22:58:03.182Z,89.30
2017-11-07T23:00:31.360Z,89.50
2017-11-07T23:02:59.497Z,89.60
2017-11-07T23:05:27.673Z,90.00
2017-11-07T23:07:55.992Z,89.70
2017-11-07T23:10:24.899Z,89.40
2017-11-07T23:12:53.069Z,89.40
2017-11-07T23:15:21.976Z,89.30
2017-11-07T23:17:50.144Z,89.30
2017-11-07T23:20:18.303Z,89.30
2017-11-07T23:22:46.440Z,88.70
2017-11-07T23:25:14.732Z,88.80
2017-11-07T23:27:42.870Z,88.80
2017-11-07T23:30:11.000Z,89.30
2017-11-07T23:32:39.163Z,88.80
2017-11-07T23:35:08.105Z,88.30
2017-11-07T23:37:36.260Z,88.30
2017-11-07T23:40:04.412Z,88.30
2017-11-07T23:42:33.446Z,88.20
2017-11-07T23:45:01.591Z,88.30
2017-11-07T23:47:29.758Z,88.40
2017-11-07T23:49:57.912Z,88.00
2017-11-07T23:52:26.819Z,88.00
2017-11-07T23:54:54.993Z,88.00
2017-11-07T23:57:23.888Z,87.70
2017-11-07T23:59:52.920Z,88.20
